sensor_id;sensor_type;location;lat;lon;timestamp;temperature;humidity
37086;DHT22;23001;45.952;12.676;2023-12-20T00:00:29;2.80;99.90
37086;DHT22;23001;45.952;12.676;2023-12-20T00:06:52;2.70;99.90
37086;DHT22;23001;45.952;12.676;2023-12-20T00:09:48;2.60;99.90
37086;DHT22;23001;45.952;12.676;2023-12-20T00:12:19;2.60;99.90
37086;DHT22;23001;45.952;12.676;2023-12-20T00:14:51;2.60;99.90
37086;DHT22;23001;45.952;12.676;2023-12-20T00:17:20;2.60;99.90
37086;DHT22;23001;45.952;12.676;2023-12-20T00:19:47;2.60;99.90
37086;DHT22;23001;45.952;12.676;2023-12-20T00:22:22;2.60;99.90
37086;DHT22;23001;45.952;12.676;2023-12-20T00:25:00;2.60;99.90
37086;DHT22;23001;45.952;12.676;2023-12-20T00:27:39;2.60;99.90
37086;DHT22;23001;45.952;12.676;2023-12-20T00:30:08;2.60;99.90
37086;DHT22;23001;45.952;12.676;2023-12-20T00:35:36;2.50;99.90
37086;DHT22;23001;45.952;12.676;2023-12-20T00:38:07;2.50;99.90
37086;DHT22;23001;45.952;12.676;2023-12-20T00:40:37;2.40;99.90
37086;DHT22;23001;45.952;12.676;2023-12-20T00:43:08;2.50;99.90
37086;DHT22;23001;45.952;12.676;2023-12-20T00:45:37;2.50;99.90
37086;DHT22;23001;45.952;12.676;2023-12-20T00:48:06;2.40;99.90
37086;DHT22;23001;45.952;12.676;2023-12-20T00:50:34;1.20;99.90
37086;DHT22;23001;45.952;12.676;2023-12-20T00:53:03;2.40;99.90
37086;DHT22;23001;45.952;12.676;2023-12-20T00:55:28;2.30;99.90
37086;DHT22;23001;45.952;12.676;2023-12-20T00:57:57;2.40;99.90
37086;DHT22;23001;45.952;12.676;2023-12-20T01:00:27;2.30;99.90
37086;DHT22;23001;45.952;12.676;2023-12-20T01:02:53;2.50;99.90
37086;DHT22;23001;45.952;12.676;2023-12-20T01:05:25;1.40;99.90
37086;DHT22;23001;45.952;12.676;2023-12-20T01:07:54;2.50;99.90
37086;DHT22;23001;45.952;12.676;2023-12-20T01:10:20;2.40;99.90
37086;DHT22;23001;45.952;12.676;2023-12-20T01:12:51;2.40;99.90
37086;DHT22;23001;45.952;12.676;2023-12-20T01:15:17;2.40;99.90
37086;DHT22;23001;45.952;12.676;2023-12-20T01:17:42;2.50;99.90
37086;DHT22;23001;45.952;12.676;2023-12-20T01:20:08;2.40;99.90
37086;DHT22;23001;45.952;12.676;2023-12-20T01:22:34;2.40;99.90
37086;DHT22;23001;45.952;12.676;2023-12-20T01:25:03;2.30;99.90
37086;DHT22;23001;45.952;12.676;2023-12-20T01:27:32;2.30;99.90
37086;DHT22;23001;45.952;12.676;2023-12-20T01:30:01;2.30;99.90
37086;DHT22;23001;45.952;12.676;2023-12-20T01:32:29;2.30;99.90
37086;DHT22;23001;45.952;12.676;2023-12-20T01:34:55;2.30;99.90
37086;DHT22;23001;45.952;12.676;2023-12-20T01:37:21;2.30;99.90
37086;DHT22;23001;45.952;12.676;2023-12-20T01:39:54;2.30;99.90
37086;DHT22;23001;45.952;12.676;2023-12-20T01:42:20;2.20;99.90
37086;DHT22;23001;45.952;12.676;2023-12-20T01:44:49;2.30;99.90
37086;DHT22;23001;45.952;12.676;2023-12-20T01:47:15;2.30;99.90
37086;DHT22;23001;45.952;12.676;2023-12-20T01:49:48;1.60;99.90
37086;DHT22;23001;45.952;12.676;2023-12-20T01:52:16;2.20;99.90
37086;DHT22;23001;45.952;12.676;2023-12-20T01:54:48;2.20;99.90
37086;DHT22;23001;45.952;12.676;2023-12-20T01:57:16;2.20;99.90
37086;DHT22;23001;45.952;12.676;2023-12-20T01:59:48;2.20;99.90
37086;DHT22;23001;45.952;12.676;2023-12-20T02:02:25;2.20;99.90
37086;DHT22;23001;45.952;12.676;2023-12-20T02:04:51;2.20;99.90
37086;DHT22;23001;45.952;12.676;2023-12-20T02:07:26;2.10;99.90
37086;DHT22;23001;45.952;12.676;2023-12-20T02:10:11;2.10;99.90
37086;DHT22;23001;45.952;12.676;2023-12-20T02:12:40;2.10;99.90
37086;DHT22;23001;45.952;12.676;2023-12-20T02:17:45;2.20;99.90
37086;DHT22;23001;45.952;12.676;2023-12-20T02:20:15;2.10;99.90
37086;DHT22;23001;45.952;12.676;2023-12-20T02:22:47;2.20;99.90
37086;DHT22;23001;45.952;12.676;2023-12-20T02:25:15;2.20;99.90
37086;DHT22;23001;45.952;12.676;2023-12-20T02:27:49;2.20;99.90
37086;DHT22;23001;45.952;12.676;2023-12-20T02:30:20;2.10;99.90
37086;DHT22;23001;45.952;12.676;2023-12-20T02:32:46;2.10;99.90
37086;DHT22;23001;45.952;12.676;2023-12-20T02:35:12;2.10;99.90
37086;DHT22;23001;45.952;12.676;2023-12-20T02:37:38;2.10;99.90
37086;DHT22;23001;45.952;12.676;2023-12-20T02:40:04;2.10;99.90
37086;DHT22;23001;45.952;12.676;2023-12-20T02:42:29;2.10;99.90
37086;DHT22;23001;45.952;12.676;2023-12-20T02:44:55;2.00;99.90
37086;DHT22;23001;45.952;12.676;2023-12-20T02:47:21;1.90;99.90
37086;DHT22;23001;45.952;12.676;2023-12-20T02:49:47;2.00;99.90
37086;DHT22;23001;45.952;12.676;2023-12-20T02:52:15;2.20;99.90
37086;DHT22;23001;45.952;12.676;2023-12-20T02:54:46;2.00;99.90
37086;DHT22;23001;45.952;12.676;2023-12-20T02:57:13;2.00;99.90
37086;DHT22;23001;45.952;12.676;2023-12-20T02:59:42;2.00;99.90
37086;DHT22;23001;45.952;12.676;2023-12-20T03:02:15;2.00;99.90
37086;DHT22;23001;45.952;12.676;2023-12-20T03:07:37;2.00;99.90
37086;DHT22;23001;45.952;12.676;2023-12-20T03:10:03;2.00;99.90
37086;DHT22;23001;45.952;12.676;2023-12-20T03:12:51;2.00;99.90
37086;DHT22;23001;45.952;12.676;2023-12-20T03:15:16;1.90;99.90
37086;DHT22;23001;45.952;12.676;2023-12-20T03:17:42;2.00;99.90
37086;DHT22;23001;45.952;12.676;2023-12-20T03:20:13;2.00;99.90
37086;DHT22;23001;45.952;12.676;2023-12-20T03:22:42;2.00;99.90
37086;DHT22;23001;45.952;12.676;2023-12-20T03:25:13;2.10;99.90
37086;DHT22;23001;45.952;12.676;2023-12-20T03:27:44;2.10;99.90
37086;DHT22;23001;45.952;12.676;2023-12-20T03:30:10;2.10;99.90
37086;DHT22;23001;45.952;12.676;2023-12-20T03:32:36;2.10;99.90
37086;DHT22;23001;45.952;12.676;2023-12-20T03:35:05;2.20;99.90
37086;DHT22;23001;45.952;12.676;2023-12-20T03:37:31;2.10;99.90
37086;DHT22;23001;45.952;12.676;2023-12-20T03:40:00;2.10;99.90
37086;DHT22;23001;45.952;12.676;2023-12-20T03:42:29;2.20;99.90
37086;DHT22;23001;45.952;12.676;2023-12-20T03:45:05;2.10;99.90
37086;DHT22;23001;45.952;12.676;2023-12-20T03:47:39;2.20;99.90
37086;DHT22;23001;45.952;12.676;2023-12-20T03:50:05;2.10;99.90
37086;DHT22;23001;45.952;12.676;2023-12-20T03:52:42;2.20;99.90
37086;DHT22;23001;45.952;12.676;2023-12-20T03:55:42;2.20;99.90
37086;DHT22;23001;45.952;12.676;2023-12-20T03:58:14;2.10;99.90
37086;DHT22;23001;45.952;12.676;2023-12-20T04:00:42;2.00;99.90
37086;DHT22;23001;45.952;12.676;2023-12-20T04:03:08;2.10;99.90
37086;DHT22;23001;45.952;12.676;2023-12-20T04:05:36;2.10;99.90
37086;DHT22;23001;45.952;12.676;2023-12-20T04:08:02;2.10;99.90
37086;DHT22;23001;45.952;12.676;2023-12-20T04:10:34;2.10;99.90
37086;DHT22;23001;45.952;12.676;2023-12-20T04:13:03;2.10;99.90
37086;DHT22;23001;45.952;12.676;2023-12-20T04:15:38;2.00;99.90
37086;DHT22;23001;45.952;12.676;2023-12-20T04:18:06;2.10;99.90
37086;DHT22;23001;45.952;12.676;2023-12-20T04:20:32;2.20;99.90
37086;DHT22;23001;45.952;12.676;2023-12-20T04:22:58;2.30;99.90
37086;DHT22;23001;45.952;12.676;2023-12-20T04:25:23;2.40;99.90
37086;DHT22;23001;45.952;12.676;2023-12-20T04:27:49;2.40;99.90
37086;DHT22;23001;45.952;12.676;2023-12-20T04:30:15;2.40;99.90
37086;DHT22;23001;45.952;12.676;2023-12-20T04:32:40;2.40;99.90
37086;DHT22;23001;45.952;12.676;2023-12-20T04:35:06;2.30;99.90
37086;DHT22;23001;45.952;12.676;2023-12-20T04:37:34;2.30;99.90
37086;DHT22;23001;45.952;12.676;2023-12-20T04:40:05;2.30;99.90
37086;DHT22;23001;45.952;12.676;2023-12-20T04:42:34;2.30;99.90
37086;DHT22;23001;45.952;12.676;2023-12-20T04:45:02;2.20;99.90
37086;DHT22;23001;45.952;12.676;2023-12-20T04:47:28;2.40;99.90
37086;DHT22;23001;45.952;12.676;2023-12-20T04:49:54;2.40;99.90
37086;DHT22;23001;45.952;12.676;2023-12-20T04:52:20;1.60;99.90
37086;DHT22;23001;45.952;12.676;2023-12-20T04:54:48;2.50;99.90
37086;DHT22;23001;45.952;12.676;2023-12-20T04:57:13;2.60;99.90
37086;DHT22;23001;45.952;12.676;2023-12-20T04:59:39;2.50;99.90
37086;DHT22;23001;45.952;12.676;2023-12-20T05:02:05;2.50;99.90
37086;DHT22;23001;45.952;12.676;2023-12-20T05:04:30;2.50;99.90
37086;DHT22;23001;45.952;12.676;2023-12-20T05:06:56;2.60;99.90
37086;DHT22;23001;45.952;12.676;2023-12-20T05:09:22;2.70;99.90
37086;DHT22;23001;45.952;12.676;2023-12-20T05:11:56;2.70;99.90
37086;DHT22;23001;45.952;12.676;2023-12-20T05:14:22;2.60;99.90
37086;DHT22;23001;45.952;12.676;2023-12-20T05:16:50;2.50;99.90
37086;DHT22;23001;45.952;12.676;2023-12-20T05:19:24;2.60;99.90
37086;DHT22;23001;45.952;12.676;2023-12-20T05:21:52;2.70;99.90
37086;DHT22;23001;45.952;12.676;2023-12-20T05:24:18;2.80;99.90
37086;DHT22;23001;45.952;12.676;2023-12-20T05:26:44;2.80;99.90
37086;DHT22;23001;45.952;12.676;2023-12-20T05:29:10;2.80;99.90
37086;DHT22;23001;45.952;12.676;2023-12-20T05:31:35;2.80;99.90
37086;DHT22;23001;45.952;12.676;2023-12-20T05:34:01;2.80;99.90
37086;DHT22;23001;45.952;12.676;2023-12-20T05:36:27;2.80;99.90
37086;DHT22;23001;45.952;12.676;2023-12-20T05:38:52;2.80;99.90
37086;DHT22;23001;45.952;12.676;2023-12-20T05:41:18;2.80;99.90
37086;DHT22;23001;45.952;12.676;2023-12-20T05:43:44;2.80;99.90
37086;DHT22;23001;45.952;12.676;2023-12-20T05:46:17;2.80;99.90
37086;DHT22;23001;45.952;12.676;2023-12-20T05:48:48;2.80;99.90
37086;DHT22;23001;45.952;12.676;2023-12-20T05:51:14;2.00;99.90
37086;DHT22;23001;45.952;12.676;2023-12-20T05:53:44;2.90;99.90
37086;DHT22;23001;45.952;12.676;2023-12-20T05:56:15;2.80;99.90
37086;DHT22;23001;45.952;12.676;2023-12-20T05:58:40;2.20;99.90
37086;DHT22;23001;45.952;12.676;2023-12-20T06:01:09;2.70;99.90
37086;DHT22;23001;45.952;12.676;2023-12-20T06:03:35;2.80;99.90
37086;DHT22;23001;45.952;12.676;2023-12-20T06:06:07;2.80;99.90
37086;DHT22;23001;45.952;12.676;2023-12-20T06:08:33;2.90;99.90
37086;DHT22;23001;45.952;12.676;2023-12-20T06:10:58;2.00;99.90
37086;DHT22;23001;45.952;12.676;2023-12-20T06:13:24;2.80;99.90
37086;DHT22;23001;45.952;12.676;2023-12-20T06:15:50;2.90;99.90
37086;DHT22;23001;45.952;12.676;2023-12-20T06:18:22;2.80;99.90
37086;DHT22;23001;45.952;12.676;2023-12-20T06:20:47;2.70;99.90
37086;DHT22;23001;45.952;12.676;2023-12-20T06:23:13;2.80;99.90
37086;DHT22;23001;45.952;12.676;2023-12-20T06:25:39;2.80;99.90
37086;DHT22;23001;45.952;12.676;2023-12-20T06:28:04;2.90;99.90
37086;DHT22;23001;45.952;12.676;2023-12-20T06:30:30;2.80;99.90
37086;DHT22;23001;45.952;12.676;2023-12-20T06:33:06;2.80;99.90
37086;DHT22;23001;45.952;12.676;2023-12-20T06:35:32;2.90;99.90
37086;DHT22;23001;45.952;12.676;2023-12-20T06:38:08;2.90;99.90
37086;DHT22;23001;45.952;12.676;2023-12-20T06:40:37;2.90;99.90
37086;DHT22;23001;45.952;12.676;2023-12-20T06:43:08;3.00;99.90
37086;DHT22;23001;45.952;12.676;2023-12-20T06:45:33;2.90;99.90
37086;DHT22;23001;45.952;12.676;2023-12-20T06:48:05;3.00;99.90
37086;DHT22;23001;45.952;12.676;2023-12-20T06:50:34;3.00;99.90
37086;DHT22;23001;45.952;12.676;2023-12-20T06:53:32;3.00;99.90
37086;DHT22;23001;45.952;12.676;2023-12-20T06:56:00;3.00;99.90
37086;DHT22;23001;45.952;12.676;2023-12-20T07:01:57;3.10;99.90
37086;DHT22;23001;45.952;12.676;2023-12-20T07:04:28;3.20;99.90
37086;DHT22;23001;45.952;12.676;2023-12-20T07:06:54;3.20;99.90
37086;DHT22;23001;45.952;12.676;2023-12-20T07:09:31;3.30;99.90
37086;DHT22;23001;45.952;12.676;2023-12-20T07:11:57;3.30;99.90
37086;DHT22;23001;45.952;12.676;2023-12-20T07:17:25;3.50;99.90
37086;DHT22;23001;45.952;12.676;2023-12-20T07:19:50;3.50;99.90
37086;DHT22;23001;45.952;12.676;2023-12-20T07:22:19;3.50;99.90
37086;DHT22;23001;45.952;12.676;2023-12-20T07:24:44;3.60;99.90
37086;DHT22;23001;45.952;12.676;2023-12-20T07:27:18;3.60;99.90
37086;DHT22;23001;45.952;12.676;2023-12-20T07:29:44;3.70;99.90
37086;DHT22;23001;45.952;12.676;2023-12-20T07:32:10;3.70;99.90
37086;DHT22;23001;45.952;12.676;2023-12-20T07:34:35;3.80;99.90
37086;DHT22;23001;45.952;12.676;2023-12-20T07:37:01;3.80;99.90
37086;DHT22;23001;45.952;12.676;2023-12-20T07:39:27;3.80;99.90
37086;DHT22;23001;45.952;12.676;2023-12-20T07:41:58;3.70;99.90
37086;DHT22;23001;45.952;12.676;2023-12-20T07:44:24;3.70;99.90
37086;DHT22;23001;45.952;12.676;2023-12-20T07:52:46;3.70;99.90
37086;DHT22;23001;45.952;12.676;2023-12-20T07:55:14;3.70;99.90
37086;DHT22;23001;45.952;12.676;2023-12-20T07:57:39;3.70;99.90
37086;DHT22;23001;45.952;12.676;2023-12-20T08:00:05;3.80;99.90
37086;DHT22;23001;45.952;12.676;2023-12-20T08:02:31;3.80;99.90
37086;DHT22;23001;45.952;12.676;2023-12-20T08:04:56;3.90;99.90
37086;DHT22;23001;45.952;12.676;2023-12-20T08:07:22;3.90;99.90
37086;DHT22;23001;45.952;12.676;2023-12-20T08:13:15;4.00;99.90
37086;DHT22;23001;45.952;12.676;2023-12-20T08:15:42;4.00;99.90
37086;DHT22;23001;45.952;12.676;2023-12-20T08:18:21;4.00;99.90
37086;DHT22;23001;45.952;12.676;2023-12-20T08:20:55;4.10;99.90
37086;DHT22;23001;45.952;12.676;2023-12-20T08:23:24;4.10;99.90
37086;DHT22;23001;45.952;12.676;2023-12-20T08:25:53;4.10;99.90
37086;DHT22;23001;45.952;12.676;2023-12-20T08:28:18;4.10;99.90
37086;DHT22;23001;45.952;12.676;2023-12-20T08:30:44;4.20;99.90
37086;DHT22;23001;45.952;12.676;2023-12-20T08:33:10;4.20;99.90
37086;DHT22;23001;45.952;12.676;2023-12-20T08:35:38;4.20;99.90
37086;DHT22;23001;45.952;12.676;2023-12-20T08:38:04;4.20;99.90
37086;DHT22;23001;45.952;12.676;2023-12-20T08:40:30;4.20;99.90
37086;DHT22;23001;45.952;12.676;2023-12-20T08:42:55;4.30;99.90
37086;DHT22;23001;45.952;12.676;2023-12-20T08:45:21;4.30;99.90
37086;DHT22;23001;45.952;12.676;2023-12-20T08:47:46;4.40;99.90
37086;DHT22;23001;45.952;12.676;2023-12-20T08:50:12;4.40;99.90
37086;DHT22;23001;45.952;12.676;2023-12-20T08:52:38;4.50;99.90
37086;DHT22;23001;45.952;12.676;2023-12-20T08:55:03;4.50;99.90
37086;DHT22;23001;45.952;12.676;2023-12-20T08:57:29;4.50;99.90
37086;DHT22;23001;45.952;12.676;2023-12-20T08:59:57;4.60;99.90
37086;DHT22;23001;45.952;12.676;2023-12-20T09:02:22;4.70;99.90
37086;DHT22;23001;45.952;12.676;2023-12-20T09:04:48;4.70;99.90
37086;DHT22;23001;45.952;12.676;2023-12-20T09:09:48;4.80;99.90
37086;DHT22;23001;45.952;12.676;2023-12-20T09:12:14;4.90;99.90
37086;DHT22;23001;45.952;12.676;2023-12-20T09:14:39;5.00;99.90
37086;DHT22;23001;45.952;12.676;2023-12-20T09:17:06;5.10;99.90
37086;DHT22;23001;45.952;12.676;2023-12-20T09:19:34;5.20;99.90
37086;DHT22;23001;45.952;12.676;2023-12-20T09:21:59;5.20;99.90
37086;DHT22;23001;45.952;12.676;2023-12-20T09:24:25;5.30;99.90
37086;DHT22;23001;45.952;12.676;2023-12-20T09:26:51;5.40;99.90
37086;DHT22;23001;45.952;12.676;2023-12-20T09:47:31;5.70;99.90
37086;DHT22;23001;45.952;12.676;2023-12-20T09:49:58;5.80;99.90
37086;DHT22;23001;45.952;12.676;2023-12-20T09:52:27;5.90;99.90
37086;DHT22;23001;45.952;12.676;2023-12-20T09:55:07;6.00;99.90
37086;DHT22;23001;45.952;12.676;2023-12-20T09:57:33;6.10;99.90
37086;DHT22;23001;45.952;12.676;2023-12-20T10:20:59;6.50;99.90
37086;DHT22;23001;45.952;12.676;2023-12-20T10:23:40;6.50;99.90
37086;DHT22;23001;45.952;12.676;2023-12-20T10:29:39;6.60;99.90
37086;DHT22;23001;45.952;12.676;2023-12-20T10:32:26;6.60;99.90
37086;DHT22;23001;45.952;12.676;2023-12-20T10:35:00;6.40;99.90
37086;DHT22;23001;45.952;12.676;2023-12-20T10:38:07;6.70;99.90
37086;DHT22;23001;45.952;12.676;2023-12-20T10:40:35;6.70;99.90
37086;DHT22;23001;45.952;12.676;2023-12-20T10:43:18;6.70;99.90
37086;DHT22;23001;45.952;12.676;2023-12-20T10:45:44;6.80;99.90
37086;DHT22;23001;45.952;12.676;2023-12-20T10:48:12;7.00;99.90
37086;DHT22;23001;45.952;12.676;2023-12-20T10:50:38;7.10;99.90
37086;DHT22;23001;45.952;12.676;2023-12-20T10:53:05;7.10;99.90
37086;DHT22;23001;45.952;12.676;2023-12-20T10:55:34;7.20;99.90
37086;DHT22;23001;45.952;12.676;2023-12-20T11:01:02;7.40;99.90
37086;DHT22;23001;45.952;12.676;2023-12-20T11:03:38;7.50;99.90
37086;DHT22;23001;45.952;12.676;2023-12-20T11:14:47;7.90;99.90
37086;DHT22;23001;45.952;12.676;2023-12-20T11:17:13;7.90;99.90
37086;DHT22;23001;45.952;12.676;2023-12-20T11:22:27;8.00;99.90
37086;DHT22;23001;45.952;12.676;2023-12-20T11:24:53;8.00;99.90
37086;DHT22;23001;45.952;12.676;2023-12-20T11:27:22;8.00;99.90
37086;DHT22;23001;45.952;12.676;2023-12-20T11:33:07;8.10;99.90
37086;DHT22;23001;45.952;12.676;2023-12-20T11:39:24;8.20;99.90
37086;DHT22;23001;45.952;12.676;2023-12-20T11:41:53;8.20;99.90
37086;DHT22;23001;45.952;12.676;2023-12-20T11:44:28;8.20;99.90
37086;DHT22;23001;45.952;12.676;2023-12-20T11:47:17;8.30;99.90
37086;DHT22;23001;45.952;12.676;2023-12-20T11:49:49;8.30;99.90
37086;DHT22;23001;45.952;12.676;2023-12-20T11:52:23;8.40;99.90
37086;DHT22;23001;45.952;12.676;2023-12-20T11:54:50;8.50;99.90
37086;DHT22;23001;45.952;12.676;2023-12-20T11:57:16;8.50;99.90
37086;DHT22;23001;45.952;12.676;2023-12-20T11:59:50;8.60;99.90
37086;DHT22;23001;45.952;12.676;2023-12-20T12:02:18;8.60;99.90
37086;DHT22;23001;45.952;12.676;2023-12-20T12:04:53;8.60;99.90
37086;DHT22;23001;45.952;12.676;2023-12-20T12:07:39;8.70;99.90
37086;DHT22;23001;45.952;12.676;2023-12-20T12:10:05;8.70;99.90
37086;DHT22;23001;45.952;12.676;2023-12-20T12:12:31;8.70;99.90
37086;DHT22;23001;45.952;12.676;2023-12-20T12:15:03;8.70;99.90
37086;DHT22;23001;45.952;12.676;2023-12-20T12:17:33;8.60;99.90
37086;DHT22;23001;45.952;12.676;2023-12-20T12:20:12;8.60;99.90
37086;DHT22;23001;45.952;12.676;2023-12-20T12:22:48;8.60;99.90
37086;DHT22;23001;45.952;12.676;2023-12-20T12:28:39;8.50;99.90
37086;DHT22;23001;45.952;12.676;2023-12-20T12:31:28;8.50;99.90
37086;DHT22;23001;45.952;12.676;2023-12-20T12:33:53;8.50;99.90
37086;DHT22;23001;45.952;12.676;2023-12-20T12:37:05;8.50;99.90
37086;DHT22;23001;45.952;12.676;2023-12-20T12:39:49;8.50;99.90
37086;DHT22;23001;45.952;12.676;2023-12-20T12:42:19;8.50;99.90
37086;DHT22;23001;45.952;12.676;2023-12-20T12:44:52;8.50;99.90
37086;DHT22;23001;45.952;12.676;2023-12-20T12:47:37;8.50;99.90
37086;DHT22;23001;45.952;12.676;2023-12-20T12:50:03;8.60;99.90
37086;DHT22;23001;45.952;12.676;2023-12-20T12:52:30;8.60;99.90
37086;DHT22;23001;45.952;12.676;2023-12-20T12:54:58;8.50;99.90
37086;DHT22;23001;45.952;12.676;2023-12-20T12:57:24;8.50;99.90
37086;DHT22;23001;45.952;12.676;2023-12-20T12:59:50;8.60;99.90
37086;DHT22;23001;45.952;12.676;2023-12-20T13:02:24;8.60;99.90
37086;DHT22;23001;45.952;12.676;2023-12-20T13:04:50;8.60;99.90
37086;DHT22;23001;45.952;12.676;2023-12-20T13:10:13;8.70;99.90
37086;DHT22;23001;45.952;12.676;2023-12-20T13:18:46;8.70;99.90
37086;DHT22;23001;45.952;12.676;2023-12-20T13:21:32;8.70;99.90
37086;DHT22;23001;45.952;12.676;2023-12-20T13:24:18;8.70;99.90
37086;DHT22;23001;45.952;12.676;2023-12-20T13:29:55;8.80;99.90
37086;DHT22;23001;45.952;12.676;2023-12-20T13:32:37;8.90;99.90
37086;DHT22;23001;45.952;12.676;2023-12-20T13:35:27;8.90;99.90
37086;DHT22;23001;45.952;12.676;2023-12-20T13:38:31;8.80;99.90
37086;DHT22;23001;45.952;12.676;2023-12-20T13:40:57;8.80;99.90
37086;DHT22;23001;45.952;12.676;2023-12-20T13:43:24;8.80;99.90
37086;DHT22;23001;45.952;12.676;2023-12-20T13:46:43;8.80;99.90
37086;DHT22;23001;45.952;12.676;2023-12-20T13:49:33;8.80;99.90
37086;DHT22;23001;45.952;12.676;2023-12-20T13:52:09;8.80;99.90
37086;DHT22;23001;45.952;12.676;2023-12-20T13:54:58;8.80;99.90
37086;DHT22;23001;45.952;12.676;2023-12-20T13:57:41;8.80;99.90
37086;DHT22;23001;45.952;12.676;2023-12-20T14:00:13;8.80;99.90
37086;DHT22;23001;45.952;12.676;2023-12-20T14:05:36;8.70;99.90
37086;DHT22;23001;45.952;12.676;2023-12-20T14:08:03;8.70;99.90
37086;DHT22;23001;45.952;12.676;2023-12-20T14:10:28;8.70;99.90
37086;DHT22;23001;45.952;12.676;2023-12-20T14:12:54;8.60;99.90
37086;DHT22;23001;45.952;12.676;2023-12-20T14:15:25;8.60;99.90
37086;DHT22;23001;45.952;12.676;2023-12-20T14:17:53;8.50;99.90
37086;DHT22;23001;45.952;12.676;2023-12-20T14:20:20;8.70;99.90
37086;DHT22;23001;45.952;12.676;2023-12-20T14:22:45;8.60;99.90
37086;DHT22;23001;45.952;12.676;2023-12-20T14:25:14;8.50;99.90
37086;DHT22;23001;45.952;12.676;2023-12-20T14:27:41;8.40;99.90
37086;DHT22;23001;45.952;12.676;2023-12-20T14:30:09;8.40;99.90
37086;DHT22;23001;45.952;12.676;2023-12-20T14:32:44;8.30;99.90
37086;DHT22;23001;45.952;12.676;2023-12-20T14:38:13;8.30;99.90
37086;DHT22;23001;45.952;12.676;2023-12-20T14:43:58;8.20;99.90
37086;DHT22;23001;45.952;12.676;2023-12-20T14:46:25;8.20;99.90
37086;DHT22;23001;45.952;12.676;2023-12-20T14:48:53;8.10;99.90
37086;DHT22;23001;45.952;12.676;2023-12-20T14:51:22;8.10;99.90
37086;DHT22;23001;45.952;12.676;2023-12-20T14:53:50;8.10;99.90
37086;DHT22;23001;45.952;12.676;2023-12-20T14:56:19;8.10;99.90
37086;DHT22;23001;45.952;12.676;2023-12-20T14:58:45;8.00;99.90
37086;DHT22;23001;45.952;12.676;2023-12-20T15:01:13;8.00;99.90
37086;DHT22;23001;45.952;12.676;2023-12-20T15:03:38;7.90;99.90
37086;DHT22;23001;45.952;12.676;2023-12-20T15:06:08;7.90;99.90
37086;DHT22;23001;45.952;12.676;2023-12-20T15:08:36;7.90;99.90
37086;DHT22;23001;45.952;12.676;2023-12-20T15:11:02;7.80;99.90
37086;DHT22;23001;45.952;12.676;2023-12-20T15:13:29;7.70;99.90
37086;DHT22;23001;45.952;12.676;2023-12-20T15:15:56;7.60;99.90
37086;DHT22;23001;45.952;12.676;2023-12-20T15:18:24;7.50;99.90
37086;DHT22;23001;45.952;12.676;2023-12-20T15:20:50;7.40;99.90
37086;DHT22;23001;45.952;12.676;2023-12-20T15:23:34;7.40;99.90
37086;DHT22;23001;45.952;12.676;2023-12-20T15:26:20;7.30;99.90
37086;DHT22;23001;45.952;12.676;2023-12-20T15:28:48;7.20;99.90
37086;DHT22;23001;45.952;12.676;2023-12-20T15:31:14;7.20;99.90
37086;DHT22;23001;45.952;12.676;2023-12-20T15:33:40;7.20;99.90
37086;DHT22;23001;45.952;12.676;2023-12-20T15:36:06;7.10;99.90
37086;DHT22;23001;45.952;12.676;2023-12-20T15:38:32;7.10;99.90
37086;DHT22;23001;45.952;12.676;2023-12-20T15:40:57;7.10;99.90
37086;DHT22;23001;45.952;12.676;2023-12-20T15:43:23;7.10;99.90
37086;DHT22;23001;45.952;12.676;2023-12-20T15:55:08;6.80;99.90
37086;DHT22;23001;45.952;12.676;2023-12-20T16:03:50;6.50;99.90
37086;DHT22;23001;45.952;12.676;2023-12-20T16:09:39;6.60;99.90
37086;DHT22;23001;45.952;12.676;2023-12-20T16:12:10;6.60;99.90
37086;DHT22;23001;45.952;12.676;2023-12-20T16:14:38;6.50;99.90
37086;DHT22;23001;45.952;12.676;2023-12-20T16:17:04;6.50;99.90
37086;DHT22;23001;45.952;12.676;2023-12-20T16:19:30;6.50;99.90
37086;DHT22;23001;45.952;12.676;2023-12-20T16:21:56;6.50;99.90
37086;DHT22;23001;45.952;12.676;2023-12-20T16:24:22;6.40;99.90
37086;DHT22;23001;45.952;12.676;2023-12-20T16:26:50;6.40;99.90
37086;DHT22;23001;45.952;12.676;2023-12-20T16:29:23;6.40;99.90
37086;DHT22;23001;45.952;12.676;2023-12-20T16:31:49;6.40;99.90
37086;DHT22;23001;45.952;12.676;2023-12-20T16:34:18;6.40;99.90
37086;DHT22;23001;45.952;12.676;2023-12-20T16:36:50;6.30;99.90
37086;DHT22;23001;45.952;12.676;2023-12-20T16:39:16;6.30;99.90
37086;DHT22;23001;45.952;12.676;2023-12-20T16:41:42;6.20;99.90
37086;DHT22;23001;45.952;12.676;2023-12-20T16:44:07;6.20;99.90
37086;DHT22;23001;45.952;12.676;2023-12-20T16:46:33;6.20;99.90
37086;DHT22;23001;45.952;12.676;2023-12-20T16:48:59;6.10;99.90
37086;DHT22;23001;45.952;12.676;2023-12-20T16:51:24;6.10;99.90
37086;DHT22;23001;45.952;12.676;2023-12-20T16:53:52;6.00;99.90
37086;DHT22;23001;45.952;12.676;2023-12-20T16:56:18;6.00;99.90
37086;DHT22;23001;45.952;12.676;2023-12-20T16:58:44;6.00;99.90
37086;DHT22;23001;45.952;12.676;2023-12-20T17:01:10;6.00;99.90
37086;DHT22;23001;45.952;12.676;2023-12-20T17:03:37;6.00;99.90
37086;DHT22;23001;45.952;12.676;2023-12-20T17:06:02;5.90;99.90
37086;DHT22;23001;45.952;12.676;2023-12-20T17:08:28;5.90;99.90
37086;DHT22;23001;45.952;12.676;2023-12-20T17:10:55;5.90;99.90
37086;DHT22;23001;45.952;12.676;2023-12-20T17:13:20;5.80;99.90
37086;DHT22;23001;45.952;12.676;2023-12-20T17:15:46;5.80;99.90
37086;DHT22;23001;45.952;12.676;2023-12-20T17:18:11;5.70;99.90
37086;DHT22;23001;45.952;12.676;2023-12-20T17:20:37;5.70;99.90
37086;DHT22;23001;45.952;12.676;2023-12-20T17:23:02;5.70;99.90
37086;DHT22;23001;45.952;12.676;2023-12-20T17:25:28;5.70;99.90
37086;DHT22;23001;45.952;12.676;2023-12-20T17:27:54;5.70;99.90
37086;DHT22;23001;45.952;12.676;2023-12-20T17:30:21;5.70;99.90
37086;DHT22;23001;45.952;12.676;2023-12-20T17:32:47;5.70;99.90
37086;DHT22;23001;45.952;12.676;2023-12-20T17:35:16;5.70;99.90
37086;DHT22;23001;45.952;12.676;2023-12-20T17:37:43;5.70;99.90
37086;DHT22;23001;45.952;12.676;2023-12-20T17:40:09;5.70;99.90
37086;DHT22;23001;45.952;12.676;2023-12-20T17:42:35;5.70;99.90
37086;DHT22;23001;45.952;12.676;2023-12-20T17:45:00;5.70;99.90
37086;DHT22;23001;45.952;12.676;2023-12-20T17:50:16;5.60;99.90
37086;DHT22;23001;45.952;12.676;2023-12-20T17:52:42;5.60;99.90
37086;DHT22;23001;45.952;12.676;2023-12-20T17:55:08;5.60;99.90
37086;DHT22;23001;45.952;12.676;2023-12-20T17:57:34;5.50;99.90
37086;DHT22;23001;45.952;12.676;2023-12-20T18:02:46;5.40;99.90
37086;DHT22;23001;45.952;12.676;2023-12-20T18:05:12;5.40;99.90
37086;DHT22;23001;45.952;12.676;2023-12-20T18:07:38;5.40;99.90